ADDS METAR Data INFO
IDs: Format: Raw Decoded Include TAF

Data at: 1745 UTC 15 Dec 2017

KBBB 151735Z AUTO 18005KT 10SM SCT010 SCT018 SCT036 M03/M05 A2984 RMK AO2
KBBB 151716Z AUTO 18004KT 10SM SCT011 BKN018 BKN038 M03/M05 A2985 RMK AO2
KBBB 151657Z AUTO 19003KT 10SM M03/M05 A2987 RMK AO2
KBBB 151636Z AUTO 12003KT 10SM M03/M06 A2987 RMK AO2
KBBB 151619Z AUTO 13003KT 10SM -RA SCT012 BKN065 BKN075 M03/M06 A2986 RMK AO2
KBBB 151555Z AUTO 00000KT 7SM SCT012 BKN055 OVC090 M03/M06 A2987 RMK AO2
KBBB 151535Z AUTO 00000KT 7SM -SN SCT055 OVC100 M04/M06 A2987 RMK AO2
KBBB 151515Z AUTO 00000KT 4SM -SN SCT018 BKN035 OVC065 M04/M06 A2988 RMK AO2
KBBB 151455Z AUTO 00000KT 10SM UP OVC016 M04/M06 A2989 RMK AO2
KBBB 151435Z AUTO 00000KT 10SM OVC014 M04/M06 A2989 RMK AO2
KBBB 151415Z AUTO 00000KT 10SM -SN OVC014 M04/M05 A2989 RMK AO2
KBBB 151355Z AUTO 00000KT 10SM OVC014 M04/M06 A2989 RMK AO2
KBBB 151335Z AUTO 00000KT 10SM BKN014 OVC019 M04/M06 A2989 RMK AO2
KBBB 151315Z AUTO 12003KT 10SM OVC014 M04/M05 A2989 RMK AO2
KBBB 151256Z AUTO 00000KT 10SM OVC014 M04/M05 A2989 RMK AO2
KBBB 151235Z AUTO 05003KT 10SM OVC014 M03/M05 A2991 RMK AO2
KBBB 151217Z AUTO 07003KT 10SM SCT008 OVC014 M03/M05 A2990 RMK AO2
KBBB 151157Z AUTO 07004KT 10SM BKN011 OVC014 M03/M04 A2991 RMK AO2
KBBB 151135Z AUTO 05010KT 7SM -DZ OVC009 M03/M04 A2991 RMK AO2
KBBB 151115Z AUTO 03005KT 10SM SCT007 OVC015 M02/M03 A2991 RMK AO2
KBBB 151055Z AUTO 04004KT 10SM -DZ OVC015 M02/M03 A2991 RMK AO2
KBBB 151035Z AUTO 03004KT 7SM -DZ SCT007 SCT012 OVC017 M02/M03 A2991 RMK AO2
KBBB 151015Z AUTO 02004KT 5SM -DZ BKN007 BKN013 OVC019 M02/M02 A2991 RMK AO2
KBBB 150955Z AUTO 00000KT 5SM -DZ BKN007 OVC031 M02/M02 A2992 RMK AO2
KBBB 150936Z AUTO 34003KT 5SM BR SCT007 OVC031 M02/M03 A2993 RMK AO2
KBBB 150920Z AUTO 32004KT 3SM -SN BKN009 BKN013 OVC029 M02/M03 A2993 RMK AO2
KBBB 150855Z AUTO 00000KT 7SM -SN SCT013 OVC031 M03/M03 A2993 RMK AO2
KBBB 150835Z AUTO 00000KT 4SM -SN SCT009 BKN033 OVC042 M03/M03 A2993 RMK AO2
KBBB 150815Z AUTO 00000KT 4SM UP SCT011 SCT034 OVC041 M03/M03 A2993 RMK AO2
KBBB 150755Z AUTO 00000KT 4SM -SN BKN013 OVC019 M03/M04 A2994 RMK AO2
KBBB 150735Z AUTO 29003KT 3SM UP BKN013 BKN018 OVC028 M03/M04 A2994 RMK AO2
KBBB 150715Z AUTO 30004KT 2SM -SN OVC013 M03/M04 A2995 RMK AO2
KBBB 150655Z AUTO 28005KT 1 3/4SM SN BKN015 OVC022 M03/M04 A2996 RMK AO2
KBBB 150635Z AUTO 28006KT 7SM -SN OVC030 M03/M05 A2997 RMK AO2
KBBB 150615Z AUTO 28005KT 7SM -SN OVC032 M03/M05 A2998 RMK AO2
KBBB 150557Z AUTO 27004KT 10SM -SN BKN032 OVC060 M03/M06 A2998 RMK AO2
KBBB 150537Z AUTO 28004KT 10SM SCT034 OVC060 M04/M06 A2999 RMK AO2
KBBB 150515Z AUTO 27003KT 10SM SCT048 OVC050 M04/M06 A3000 RMK AO2
KBBB 150457Z AUTO 27003KT 10SM OVC048 M04/M06 A3001 RMK AO2
KBBB 150435Z AUTO 26004KT 10SM OVC044 M04/M06 A3001 RMK AO2
KBBB 150415Z AUTO 27004KT 10SM OVC046 M04/M06 A3001 RMK AO2
KBBB 150355Z AUTO 29004KT 10SM OVC044 M04/M07 A3002 RMK AO2
KBBB 150336Z AUTO 31005KT 10SM SCT025 OVC044 M04/M07 A3003 RMK AO2
KBBB 150315Z AUTO 31006KT 10SM SCT023 SCT033 OVC041 M04/M07 A3004 RMK AO2
KBBB 150255Z AUTO 31006KT 10SM SCT023 BKN036 OVC042 M04/M07 A3005 RMK AO2
KBBB 150235Z AUTO 33005KT 10SM -SN BKN025 BKN031 OVC049 M04/M07 A3005 RMK AO2
KBBB 150215Z AUTO 33006KT 10SM BKN025 BKN033 OVC049 M04/M07 A3005 RMK AO2
KBBB 150157Z AUTO 34006KT 10SM OVC025 M04/M07 A3006 RMK AO2
KBBB 150135Z AUTO 34005KT 10SM -SN OVC025 M04/M07 A3006 RMK AO2
KBBB 150115Z AUTO 34005KT 10SM -SN BKN023 BKN030 OVC050 M04/M07 A3007 RMK AO2
KBBB 150055Z AUTO 34006KT 10SM SCT025 SCT030 BKN050 M05/M07 A3007 RMK AO2
KBBB 150035Z AUTO 35008KT 10SM SCT018 SCT024 M06/M07 A3007 RMK AO2
KBBB 150015Z AUTO 36012G20KT 10SM BKN016 OVC024 M04/M07 A3008 RMK AO2
KBBB 142355Z AUTO 34012KT 10SM OVC016 M04/M07 A3008 RMK AO2
KBBB 142335Z AUTO 34010KT 10SM BKN018 OVC023 M04/M07 A3008 RMK AO2
KBBB 142315Z AUTO 34010KT 10SM OVC021 M04/M07 A3007 RMK AO2
KBBB 142255Z AUTO 35008KT 10SM OVC021 M04/M08 A3008 RMK AO2
KBBB 142235Z AUTO 35008KT 10SM OVC021 M04/M08 A3008 RMK AO2
KBBB 142215Z AUTO 36013G17KT 10SM OVC019 M04/M08 A3007 RMK AO2
KBBB 142155Z AUTO 36012G19KT 10SM OVC019 M04/M08 A3007 RMK AO2
KBBB 142135Z AUTO 36013KT 10SM OVC021 M04/M07 A3006 RMK AO2
KBBB 142115Z AUTO 36011KT 10SM BKN021 OVC035 M04/M08 A3006 RMK AO2
KBBB 142055Z AUTO 36015KT 10SM SCT019 OVC037 M03/M07 A3005 RMK AO2
KBBB 142035Z AUTO 36011KT 10SM SCT019 OVC037 M03/M07 A3005 RMK AO2
KBBB 142016Z AUTO 35008KT 7SM -SN SCT019 OVC037 M03/M07 A3005 RMK AO2
KBBB 141955Z AUTO 35011KT 7SM -SN SCT019 OVC035 M03/M07 A3005 RMK AO2
KBBB 141935Z AUTO 01008KT 10SM SCT019 OVC031 M04/M08 A3006 RMK AO2
KBBB 141915Z AUTO 36010KT 10SM SCT019 BKN028 OVC038 M03/M08 A3005 RMK AO2
KBBB 141855Z AUTO 36009KT 10SM OVC034 M04/M08 A3005 RMK AO2
KBBB 141835Z AUTO 36009KT 10SM OVC034 M04/M08 A3005 RMK AO2
KBBB 141815Z AUTO 35010KT 10SM OVC036 M04/M08 A3006 RMK AO2
KBBB 141755Z AUTO 36008KT 10SM OVC039 M04/M08 A3006 RMK AO2
KBBB 141735Z AUTO 36009KT 10SM BKN041 BKN090 M04/M08 A3006 RMK AO2
KBBB 141716Z AUTO 01007KT 10SM SCT012 SCT090 M05/M08 A3006 RMK AO2
KBBB 141655Z AUTO 02007KT 10SM SCT014 SCT090 M05/M08 A3007 RMK AO2
KBBB 141635Z AUTO 36008KT 10SM BKN012 BKN080 M06/M08 A3006 RMK AO2
KBBB 141620Z AUTO 36008KT 10SM OVC012 M06/M08 A3006 RMK AO2
KBBB 141555Z AUTO 36006KT 10SM OVC012 M06/M08 A3006 RMK AO2
KBBB 141535Z AUTO 01004KT 10SM OVC010 M07/M08 A3005 RMK AO2
KBBB 141516Z AUTO 36006KT 10SM OVC008 M07/M08 A3005 RMK AO2
KBBB 141455Z AUTO 01003KT 10SM OVC010 M07/M09 A3004 RMK AO2
KBBB 141435Z AUTO 02004KT 10SM OVC010 M07/M09 A3004 RMK AO2
KBBB 141421Z AUTO 36007KT 10SM OVC010 M07/M09 A3003 RMK AO2
KBBB 141359Z AUTO 36007KT 10SM OVC010 M07/M09 A3002 RMK AO2
KBBB 141335Z AUTO 01006KT 10SM OVC010 M07/M09 A3002 RMK AO2
KBBB 141317Z AUTO 01007KT 10SM OVC010 M07/M09 A3002 RMK AO2
KBBB 141255Z AUTO 36007KT 10SM OVC010 M07/M09 A3002 RMK AO2
KBBB 141237Z AUTO 36010KT 10SM OVC010 M07/M09 A3002 RMK AO2
KBBB 141216Z AUTO 36006KT 10SM OVC010 M07/M09 A3002 RMK AO2
KBBB 141158Z AUTO 36007KT 10SM OVC010 M07/M09 A3002 RMK AO2
KBBB 141137Z AUTO 35007KT 10SM OVC010 M07/M09 A3001 RMK AO2
KBBB 141116Z AUTO 33007KT 10SM OVC010 M07/M09 A3001 RMK AO2
KBBB 141055Z AUTO 35006KT 10SM OVC010 M07/M09 A3001 RMK AO2
KBBB 141036Z AUTO 35006KT 10SM OVC012 M07/M09 A3001 RMK AO2
KBBB 141004Z AUTO 35011KT 10SM OVC012 M07/M10 A3001 RMK AO2
KBBB 140915Z AUTO 33006KT 10SM OVC014 M07/M09 A3000 RMK AO2
KBBB 140855Z AUTO 34006KT 10SM OVC014 M07/M09 A3001 RMK AO2
KBBB 140845Z AUTO 33007KT 10SM OVC016 M07/M09 A3001 RMK AO2
KBBB 140838Z AUTO 34005KT 10SM OVC016 M07/M09 A3001 RMK AO2
KBBB 140815Z AUTO 31006KT 10SM OVC016 M07/M09 A3001 RMK AO2
KBBB 140757Z AUTO 32006KT 10SM OVC016 M07/M09 A3001 RMK AO2
KBBB 140735Z AUTO 33006KT 10SM OVC016 M07/M09 A3001 RMK AO2
KBBB 140701Z AUTO 32007KT 10SM OVC018 M06/M09 A3000 RMK AO2
KBBB 140645Z AUTO 34007KT 10SM OVC018 M06/M09 A3000 RMK AO2
KBBB 140621Z AUTO 33006KT 10SM OVC018 M07/M09 A3000 RMK AO2
KBBB 140556Z AUTO 33005KT 10SM OVC018 M06/M09 A3000 RMK AO2